createdAt,value
2019-05-25T00:00:39.383Z,100128.86
2019-05-25T00:02:46.868Z,100126.21
2019-05-25T00:04:54.411Z,100127.23
2019-05-25T00:07:01.980Z,100121.05
2019-05-25T00:09:10.067Z,100121.87
2019-05-25T00:11:18.897Z,100125.11
2019-05-25T00:13:26.537Z,100125.46
2019-05-25T00:15:34.121Z,100115.98
2019-05-25T00:17:41.596Z,100118.09
2019-05-25T00:19:48.951Z,100120.59
2019-05-25T00:21:56.318Z,100114.70
2019-05-25T00:24:12.214Z,100113.45
2019-05-25T00:26:12.909Z,100117.18
2019-05-25T00:28:20.344Z,100124.30
2019-05-25T00:30:27.842Z,100113.73
2019-05-25T00:32:35.245Z,100113.58
2019-05-25T00:34:42.716Z,100107.58
2019-05-25T00:36:50.120Z,100108.90
2019-05-25T00:38:57.544Z,100105.51
2019-05-25T00:41:04.988Z,100110.06
2019-05-25T00:43:12.406Z,100116.69
2019-05-25T00:45:19.934Z,100110.66
2019-05-25T00:47:27.366Z,100107.17
2019-05-25T00:49:34.741Z,100106.69
2019-05-25T00:51:42.168Z,100109.47
2019-05-25T00:53:49.578Z,100107.02
2019-05-25T00:55:56.950Z,100108.66
2019-05-25T00:58:04.333Z,100104.20
2019-05-25T01:00:12.364Z,100108.50
2019-05-25T01:02:19.792Z,100109.83
2019-05-25T01:04:27.278Z,100116.30
2019-05-25T01:06:34.829Z,100115.94
2019-05-25T01:08:42.195Z,100108.41
2019-05-25T01:10:49.597Z,100110.80
2019-05-25T01:12:57.158Z,100100.14
2019-05-25T01:15:07.787Z,100108.47
2019-05-25T01:17:15.192Z,100113.77
2019-05-25T01:19:22.613Z,100110.44
2019-05-25T01:21:30.343Z,100115.44
2019-05-25T01:23:37.795Z,100108.95
2019-05-25T01:25:45.307Z,100109.03
2019-05-25T01:27:52.783Z,100107.38
2019-05-25T01:30:00.186Z,100105.20
2019-05-25T01:32:07.601Z,100108.84
2019-05-25T01:34:15.034Z,100110.16
2019-05-25T01:36:22.461Z,100103.67
2019-05-25T01:38:29.867Z,100100.73
2019-05-25T01:40:37.296Z,100104.66
2019-05-25T01:42:44.680Z,100105.72
2019-05-25T01:44:52.083Z,100105.15
2019-05-25T01:46:59.577Z,100108.55
2019-05-25T01:49:07.069Z,100102.41
2019-05-25T01:51:14.460Z,100109.81
2019-05-25T01:53:21.908Z,100108.51
2019-05-25T01:55:29.244Z,100117.89
2019-05-25T01:57:36.621Z,100120.05
2019-05-25T01:59:44.197Z,100109.96
2019-05-25T02:01:51.688Z,100110.66
2019-05-25T02:03:59.071Z,100111.41
2019-05-25T02:06:06.590Z,100112.20
2019-05-25T02:08:14.048Z,100111.71
2019-05-25T02:10:21.538Z,100115.23
2019-05-25T02:12:28.941Z,100119.23
2019-05-25T02:14:36.389Z,100119.61
2019-05-25T02:16:43.928Z,100119.79
2019-05-25T02:18:51.347Z,100119.03
2019-05-25T02:20:58.696Z,100123.78
2019-05-25T02:23:06.186Z,100121.05
2019-05-25T02:25:18.067Z,100114.92
2019-05-25T02:27:23.631Z,100112.64
2019-05-25T02:29:31.036Z,100114.34
2019-05-25T02:31:38.379Z,100113.23
2019-05-25T02:33:45.828Z,100117.30
2019-05-25T02:35:53.305Z,100115.31
2019-05-25T02:38:00.701Z,100112.48
2019-05-25T02:40:08.533Z,100117.69
2019-05-25T02:42:15.978Z,100121.09
2019-05-25T02:44:23.429Z,100114.38
2019-05-25T02:46:30.806Z,100124.47
2019-05-25T02:48:38.190Z,100119.66
2019-05-25T02:50:46.899Z,100125.70
2019-05-25T02:52:54.335Z,100122.51
2019-05-25T02:55:01.695Z,100122.50
2019-05-25T02:57:09.054Z,100127.59
2019-05-25T02:59:16.440Z,100121.19
2019-05-25T03:01:23.956Z,100121.38
2019-05-25T03:03:31.814Z,100118.91
2019-05-25T03:05:39.419Z,100113.33
2019-05-25T03:07:48.212Z,100125.72
2019-05-25T03:09:58.608Z,100134.20
2019-05-25T03:12:06.251Z,100129.40
2019-05-25T03:14:13.731Z,100126.66
2019-05-25T03:16:21.229Z,100127.02
2019-05-25T03:18:28.608Z,100127.98
2019-05-25T03:20:36.166Z,100126.46
2019-05-25T03:22:43.547Z,100131.66
2019-05-25T03:24:50.966Z,100126.16
2019-05-25T03:26:58.417Z,100128.16
2019-05-25T03:29:05.964Z,100130.97
2019-05-25T03:31:13.352Z,100134.77
2019-05-25T03:33:20.759Z,100129.48
2019-05-25T03:35:28.306Z,100141.37
2019-05-25T03:37:35.919Z,100138.25
2019-05-25T03:39:43.336Z,100141.17
2019-05-25T03:41:51.335Z,100143.62
2019-05-25T03:43:58.844Z,100140.89
2019-05-25T03:46:06.257Z,100138.70
2019-05-25T03:48:13.650Z,100149.53
2019-05-25T03:50:21.528Z,100144.90
2019-05-25T03:52:28.938Z,100155.11
2019-05-25T03:54:36.299Z,100156.41
2019-05-25T03:56:43.771Z,100148.55
2019-05-25T03:58:51.210Z,100155.46
2019-05-25T04:00:59.162Z,100152.91
2019-05-25T04:03:07.444Z,100153.40
2019-05-25T04:05:15.053Z,100151.32
2019-05-25T04:07:22.437Z,100156.58
2019-05-25T04:09:29.938Z,100164.80
2019-05-25T04:11:37.486Z,100156.58
2019-05-25T04:13:44.875Z,100155.47
2019-05-25T04:15:52.336Z,100152.77
2019-05-25T04:17:59.770Z,100152.73
2019-05-25T04:20:07.745Z,100150.79
2019-05-25T04:22:15.214Z,100155.53
2019-05-25T04:24:22.632Z,100148.05
2019-05-25T04:26:30.244Z,100157.39
2019-05-25T04:28:37.708Z,100156.30
2019-05-25T04:30:45.148Z,100152.02
2019-05-25T04:32:52.698Z,100158.19
2019-05-25T04:35:00.131Z,100158.38
2019-05-25T04:37:07.704Z,100157.18
2019-05-25T04:39:15.146Z,100154.72
2019-05-25T04:41:22.627Z,100153.66
2019-05-25T04:43:30.135Z,100158.36
2019-05-25T04:45:37.576Z,100155.16
2019-05-25T04:47:45.151Z,100160.44
2019-05-25T04:49:52.617Z,100162.51
2019-05-25T04:52:00.137Z,100160.56
2019-05-25T04:54:07.933Z,100158.53
2019-05-25T04:56:15.495Z,100169.73
2019-05-25T04:58:23.017Z,100175.89
2019-05-25T05:00:30.753Z,100177.06
2019-05-25T05:02:38.228Z,100177.62
2019-05-25T05:04:45.681Z,100171.03
2019-05-25T05:06:53.215Z,100176.59
2019-05-25T05:09:00.862Z,100167.51
2019-05-25T05:11:08.767Z,100176.76
2019-05-25T05:13:16.383Z,100178.99
2019-05-25T05:15:24.734Z,100178.55
2019-05-25T05:17:32.347Z,100179.45
2019-05-25T05:19:39.736Z,100176.22
2019-05-25T05:21:47.228Z,100180.05
2019-05-25T05:23:54.760Z,100182.02
2019-05-25T05:26:02.265Z,100183.30
2019-05-25T05:28:09.652Z,100181.39
2019-05-25T05:30:17.535Z,100184.09
2019-05-25T05:32:27.856Z,100180.25
2019-05-25T05:34:34.421Z,100176.17
2019-05-25T05:36:43.138Z,100179.95
2019-05-25T05:38:51.695Z,100189.09
2019-05-25T05:41:00.682Z,100176.30
2019-05-25T05:43:12.557Z,100175.56
2019-05-25T05:45:20.090Z,100173.56
2019-05-25T05:47:29.429Z,100172.44
2019-05-25T05:49:37.286Z,100168.38
2019-05-25T05:51:50.211Z,100172.81
2019-05-25T05:53:58.160Z,100182.39
2019-05-25T05:56:05.889Z,100179.00
2019-05-25T05:58:13.394Z,100178.66
2019-05-25T06:00:21.436Z,100175.66
2019-05-25T06:02:28.938Z,100173.44
2019-05-25T06:04:36.506Z,100175.25
2019-05-25T06:06:44.143Z,100176.58
2019-05-25T06:08:51.903Z,100175.49
2019-05-25T06:10:59.477Z,100173.46
2019-05-25T06:13:07.285Z,100177.91
2019-05-25T06:15:16.262Z,100175.59
2019-05-25T06:17:24.011Z,100166.33
2019-05-25T06:19:32.427Z,100163.92
2019-05-25T06:21:39.992Z,100167.92
2019-05-25T06:23:47.430Z,100171.25
2019-05-25T06:25:55.022Z,100172.70
2019-05-25T06:28:02.586Z,100169.45
2019-05-25T06:30:11.566Z,100170.17
2019-05-25T06:32:19.050Z,100171.86
2019-05-25T06:34:26.679Z,100165.94
2019-05-25T06:36:34.115Z,100168.34
2019-05-25T06:38:41.690Z,100170.77
2019-05-25T06:40:49.397Z,100164.37
2019-05-25T06:42:57.154Z,100159.51
2019-05-25T06:45:05.313Z,100164.34
2019-05-25T06:47:13.331Z,100161.83
2019-05-25T06:49:21.099Z,100165.09
2019-05-25T06:51:29.411Z,100160.23
2019-05-25T06:53:37.226Z,100161.30
2019-05-25T06:55:45.173Z,100158.38
2019-05-25T06:57:52.809Z,100153.00
2019-05-25T07:00:00.602Z,100159.51
2019-05-25T07:02:08.414Z,100161.61
2019-05-25T07:04:15.997Z,100163.28
2019-05-25T07:06:24.266Z,100166.77
2019-05-25T07:08:32.169Z,100165.55
2019-05-25T07:10:40.460Z,100170.64
2019-05-25T07:12:48.114Z,100169.59
2019-05-25T07:14:57.295Z,100166.53
2019-05-25T07:17:05.391Z,100164.93
2019-05-25T07:19:13.256Z,100166.70
2019-05-25T07:21:21.437Z,100160.83
2019-05-25T07:23:30.250Z,100163.62
2019-05-25T07:25:38.333Z,100165.95
2019-05-25T07:27:58.283Z,100170.95
2019-05-25T07:29:55.015Z,100170.48
2019-05-25T07:32:03.162Z,100165.61
2019-05-25T07:34:10.680Z,100165.86
2019-05-25T07:36:18.908Z,100164.28
2019-05-25T07:38:26.545Z,100161.86
2019-05-25T07:40:34.702Z,100167.50
2019-05-25T07:42:42.154Z,100169.24
2019-05-25T07:44:49.662Z,100170.56
2019-05-25T07:46:57.652Z,100172.91
2019-05-25T07:49:05.281Z,100179.98
2019-05-25T07:51:12.720Z,100176.81
2019-05-25T07:53:20.520Z,100171.46
2019-05-25T07:55:28.087Z,100171.03
2019-05-25T07:57:35.805Z,100170.85
2019-05-25T07:59:43.582Z,100168.98
2019-05-25T08:01:51.454Z,100166.52
2019-05-25T08:03:58.967Z,100174.28
2019-05-25T08:06:06.441Z,100174.02
2019-05-25T08:08:13.904Z,100165.80
2019-05-25T08:10:22.261Z,100166.42
2019-05-25T08:12:29.861Z,100171.14
2019-05-25T08:14:37.310Z,100162.79
2019-05-25T08:16:44.854Z,100164.74
2019-05-25T08:18:52.326Z,100164.80
2019-05-25T08:20:59.729Z,100167.89
2019-05-25T08:23:07.262Z,100164.59
2019-05-25T08:25:14.973Z,100167.92
2019-05-25T08:27:22.615Z,100156.81
2019-05-25T08:29:30.166Z,100161.38
2019-05-25T08:31:37.600Z,100164.20
2019-05-25T08:33:45.057Z,100166.16
2019-05-25T08:35:52.752Z,100159.28
2019-05-25T08:38:00.191Z,100162.56
2019-05-25T08:40:08.861Z,100158.95
2019-05-25T08:42:16.568Z,100165.10
2019-05-25T08:44:24.493Z,100160.25
2019-05-25T08:46:32.075Z,100161.29
2019-05-25T08:48:39.532Z,100159.14
2019-05-25T08:50:47.035Z,100160.88
2019-05-25T08:52:54.888Z,100158.50
2019-05-25T08:55:02.387Z,100163.91
2019-05-25T08:57:13.763Z,100163.91
2019-05-25T08:59:20.025Z,100159.00
2019-05-25T09:01:27.612Z,100162.71
2019-05-25T09:03:35.307Z,100166.78
2019-05-25T09:05:42.789Z,100169.33
2019-05-25T09:07:50.453Z,100166.59
2019-05-25T09:09:58.255Z,100162.71
2019-05-25T09:12:06.001Z,100161.70
2019-05-25T09:14:13.788Z,100164.95
2019-05-25T09:16:22.187Z,100162.70
2019-05-25T09:18:29.673Z,100159.17
2019-05-25T09:20:37.158Z,100150.80
2019-05-25T09:22:44.865Z,100146.95
2019-05-25T09:24:52.378Z,100147.81
2019-05-25T09:26:59.837Z,100145.97
2019-05-25T09:29:08.218Z,100140.05
2019-05-25T09:31:15.747Z,100146.48
2019-05-25T09:33:23.649Z,100151.30
2019-05-25T09:35:31.288Z,100154.23
2019-05-25T09:37:39.036Z,100150.55
2019-05-25T09:39:46.562Z,100151.59
2019-05-25T09:41:54.089Z,100151.33
2019-05-25T09:44:01.580Z,100150.66
2019-05-25T09:46:09.216Z,100150.68
2019-05-25T09:48:16.716Z,100146.43
2019-05-25T09:50:24.270Z,100153.22
2019-05-25T09:52:31.905Z,100149.25
2019-05-25T09:54:39.418Z,100152.36
2019-05-25T09:56:46.890Z,100145.09
2019-05-25T09:58:54.300Z,100156.64
2019-05-25T10:01:01.787Z,100152.95
2019-05-25T10:03:09.342Z,100150.37
2019-05-25T10:05:17.077Z,100150.14
2019-05-25T10:07:24.684Z,100150.96
2019-05-25T10:09:32.185Z,100146.47
2019-05-25T10:11:39.604Z,100151.05
2019-05-25T10:13:47.095Z,100141.30
2019-05-25T10:15:54.518Z,100155.84
2019-05-25T10:18:01.923Z,100146.00
2019-05-25T10:20:10.536Z,100152.50
2019-05-25T10:22:18.082Z,100146.87
2019-05-25T10:24:25.687Z,100145.72
2019-05-25T10:26:33.399Z,100149.55
2019-05-25T10:28:40.844Z,100149.92
2019-05-25T10:30:48.378Z,100149.81
2019-05-25T10:32:55.886Z,100139.20
2019-05-25T10:35:03.506Z,100141.12
2019-05-25T10:37:11.058Z,100139.02
2019-05-25T10:39:18.537Z,100136.38
2019-05-25T10:41:25.992Z,100130.47
2019-05-25T10:43:33.511Z,100135.47
2019-05-25T10:45:40.959Z,100129.67
2019-05-25T10:47:48.457Z,100119.36
2019-05-25T10:49:55.934Z,100127.52
2019-05-25T10:52:03.534Z,100128.67
2019-05-25T10:54:10.970Z,100133.20
2019-05-25T10:56:18.516Z,100123.23
2019-05-25T10:58:25.943Z,100121.54
2019-05-25T11:00:33.602Z,100121.33
2019-05-25T11:02:41.371Z,100120.62
2019-05-25T11:04:48.781Z,100111.36
2019-05-25T11:06:56.316Z,100105.75
2019-05-25T11:09:04.104Z,100108.44
2019-05-25T11:11:11.755Z,100109.21
2019-05-25T11:13:19.383Z,100108.41
2019-05-25T11:15:26.876Z,100106.30
2019-05-25T11:17:34.458Z,100103.48
2019-05-25T11:19:41.902Z,100102.34
2019-05-25T11:21:49.530Z,100105.07
2019-05-25T11:23:57.118Z,100105.52
2019-05-25T11:26:04.828Z,100097.47
2019-05-25T11:28:12.586Z,100100.41
2019-05-25T11:30:20.415Z,100092.18
2019-05-25T11:32:28.186Z,100099.88
2019-05-25T11:34:36.196Z,100092.86
2019-05-25T11:36:44.577Z,100087.13
2019-05-25T11:38:52.110Z,100091.30
2019-05-25T11:40:59.711Z,100091.13
2019-05-25T11:43:07.167Z,100099.42
2019-05-25T11:45:16.167Z,100084.80
2019-05-25T11:47:24.300Z,100085.40
2019-05-25T11:49:31.904Z,100082.69
2019-05-25T11:51:39.702Z,100084.78
2019-05-25T11:53:47.422Z,100080.38
2019-05-25T11:55:55.420Z,100083.14
2019-05-25T11:58:03.108Z,100080.92
2019-05-25T12:00:24.319Z,100083.45
2019-05-25T12:02:22.743Z,100072.16
2019-05-25T12:04:30.775Z,100067.00
2019-05-25T12:06:38.224Z,100070.38
2019-05-25T12:08:45.837Z,100071.33
2019-05-25T12:10:53.292Z,100065.83
2019-05-25T12:13:00.784Z,100075.45
2019-05-25T12:15:09.597Z,100079.64
2019-05-25T12:17:17.161Z,100069.67
2019-05-25T12:19:24.962Z,100079.14
2019-05-25T12:21:32.523Z,100074.78
2019-05-25T12:23:40.007Z,100072.33
2019-05-25T12:25:47.462Z,100062.29
2019-05-25T12:27:55.077Z,100075.95
2019-05-25T12:30:02.636Z,100075.42
2019-05-25T12:32:10.269Z,100082.75
2019-05-25T12:34:18.621Z,100077.36
2019-05-25T12:36:26.372Z,100077.88
2019-05-25T12:38:33.891Z,100071.67
2019-05-25T12:40:53.198Z,100072.70
2019-05-25T12:42:50.864Z,100073.38
2019-05-25T12:44:58.494Z,100078.41
2019-05-25T12:47:06.770Z,100077.13
2019-05-25T12:49:14.476Z,100071.75
2019-05-25T12:51:22.241Z,100066.02
2019-05-25T12:53:30.846Z,100078.45
2019-05-25T12:55:38.629Z,100070.70
2019-05-25T12:57:46.634Z,100075.76
2019-05-25T12:59:54.590Z,100073.58
2019-05-25T13:02:02.659Z,100074.41
2019-05-25T13:04:10.529Z,100066.28
2019-05-25T13:06:18.509Z,100065.38
2019-05-25T13:08:26.215Z,100067.87
2019-05-25T13:10:33.805Z,100070.40
2019-05-25T13:12:41.767Z,100065.02
2019-05-25T13:14:49.266Z,100069.88
2019-05-25T13:16:56.828Z,100062.62
2019-05-25T13:19:04.466Z,100067.83
2019-05-25T13:21:11.908Z,100060.78
2019-05-25T13:23:19.519Z,100065.83
2019-05-25T13:25:27.133Z,100066.67
2019-05-25T13:27:34.847Z,100066.02
2019-05-25T13:29:42.375Z,100070.36
2019-05-25T13:31:50.023Z,100072.19
2019-05-25T13:33:57.586Z,100070.02
2019-05-25T13:36:05.170Z,100064.47
2019-05-25T13:38:12.766Z,100070.67
2019-05-25T13:40:20.937Z,100078.80
2019-05-25T13:42:28.400Z,100071.41
2019-05-25T13:44:36.051Z,100072.72
2019-05-25T13:46:43.816Z,100069.89
2019-05-25T13:48:51.369Z,100074.09
2019-05-25T13:50:58.968Z,100068.02
2019-05-25T13:53:06.526Z,100072.36
2019-05-25T13:55:14.615Z,100062.75
2019-05-25T13:57:22.371Z,100074.70
2019-05-25T13:59:30.113Z,100063.97
2019-05-25T14:01:39.033Z,100072.02
2019-05-25T14:03:47.814Z,100074.48
2019-05-25T14:05:55.371Z,100071.27
2019-05-25T14:08:03.054Z,100072.08
2019-05-25T14:10:11.620Z,100074.16
2019-05-25T14:12:19.603Z,100076.45
2019-05-25T14:14:27.405Z,100076.98
2019-05-25T14:16:35.619Z,100069.89
2019-05-25T14:18:43.396Z,100072.77
2019-05-25T14:20:51.162Z,100067.97
2019-05-25T14:22:58.914Z,100075.80
2019-05-25T14:25:07.835Z,100074.78
2019-05-25T14:27:15.359Z,100067.50
2019-05-25T14:29:26.136Z,100074.36
2019-05-25T14:31:44.835Z,100072.38
2019-05-25T14:33:41.662Z,100075.61
2019-05-25T14:35:49.213Z,100073.80
2019-05-25T14:37:56.666Z,100074.26
2019-05-25T14:40:05.217Z,100071.67
2019-05-25T14:42:12.840Z,100066.77
2019-05-25T14:44:20.555Z,100077.72
2019-05-25T14:46:28.480Z,100078.05
2019-05-25T14:48:36.183Z,100076.69
2019-05-25T14:50:43.856Z,100082.69
2019-05-25T14:52:51.757Z,100074.72
2019-05-25T14:54:59.350Z,100079.14
2019-05-25T14:57:06.894Z,100073.14
2019-05-25T14:59:14.790Z,100069.14
2019-05-25T15:01:22.392Z,100072.36
2019-05-25T15:03:30.146Z,100076.97
2019-05-25T15:05:37.687Z,100070.47
2019-05-25T15:07:45.393Z,100078.91
2019-05-25T15:09:53.121Z,100080.98
2019-05-25T15:12:00.521Z,100073.56
2019-05-25T15:14:08.171Z,100081.67
2019-05-25T15:16:15.773Z,100064.56
2019-05-25T15:18:23.360Z,100078.88
2019-05-25T15:20:30.861Z,100075.77
2019-05-25T15:22:38.884Z,100067.98
2019-05-25T15:24:47.019Z,100074.30
2019-05-25T15:26:54.728Z,100061.44
2019-05-25T15:29:02.206Z,100075.16
2019-05-25T15:31:09.671Z,100082.19
2019-05-25T15:33:17.392Z,100074.91
2019-05-25T15:35:25.170Z,100068.86
2019-05-25T15:37:32.798Z,100066.17
2019-05-25T15:39:40.492Z,100066.98
2019-05-25T15:41:48.542Z,100070.02
2019-05-25T15:43:56.332Z,100069.30
2019-05-25T15:46:04.042Z,100066.54
2019-05-25T15:48:11.630Z,100070.20
2019-05-25T15:50:21.031Z,100074.55
2019-05-25T15:52:28.563Z,100073.92
2019-05-25T15:54:36.150Z,100079.01
2019-05-25T15:56:43.821Z,100078.65
2019-05-25T15:58:51.378Z,100074.41
2019-05-25T16:00:58.860Z,100081.37
2019-05-25T16:03:06.415Z,100078.46
2019-05-25T16:05:14.819Z,100076.70
2019-05-25T16:07:22.306Z,100079.84
2019-05-25T16:09:29.947Z,100076.44
2019-05-25T16:11:37.624Z,100082.10
2019-05-25T16:13:45.030Z,100080.13
2019-05-25T16:15:52.677Z,100084.92
2019-05-25T16:18:00.146Z,100075.59
2019-05-25T16:20:08.670Z,100082.34
2019-05-25T16:22:16.332Z,100082.58
2019-05-25T16:24:23.811Z,100075.19
2019-05-25T16:26:44.905Z,100083.77
2019-05-25T16:28:40.618Z,100081.69
2019-05-25T16:30:48.280Z,100079.66
2019-05-25T16:33:14.070Z,100092.95
2019-05-25T16:35:05.736Z,100089.06
2019-05-25T16:37:13.568Z,100091.84
2019-05-25T16:39:21.235Z,100083.59
2019-05-25T16:41:28.697Z,100085.20
2019-05-25T16:43:36.233Z,100092.20
2019-05-25T16:45:44.366Z,100084.78
2019-05-25T16:47:52.147Z,100091.05
2019-05-25T16:49:59.818Z,100089.47
2019-05-25T16:52:07.351Z,100086.80
2019-05-25T16:54:14.892Z,100083.03
2019-05-25T16:56:22.599Z,100087.49
2019-05-25T16:58:30.277Z,100090.30
2019-05-25T17:00:37.858Z,100092.98
2019-05-25T17:02:45.440Z,100090.49
2019-05-25T17:04:52.950Z,100099.42
2019-05-25T17:07:00.467Z,100100.73
2019-05-25T17:09:09.486Z,100106.78
2019-05-25T17:11:17.003Z,100100.73
2019-05-25T17:13:24.698Z,100106.15
2019-05-25T17:15:32.378Z,100109.39
2019-05-25T17:17:40.097Z,100113.70
2019-05-25T17:19:47.847Z,100119.02
2019-05-25T17:21:55.439Z,100121.06
2019-05-25T17:24:03.882Z,100124.66
2019-05-25T17:26:11.523Z,100125.86
2019-05-25T17:28:19.211Z,100124.39
2019-05-25T17:30:46.947Z,100130.10
2019-05-25T17:32:54.790Z,100130.73
2019-05-25T17:35:02.443Z,100135.52
2019-05-25T17:37:10.495Z,100130.52
2019-05-25T17:39:18.473Z,100130.03
2019-05-25T17:41:26.234Z,100134.74
2019-05-25T17:43:34.014Z,100136.63
2019-05-25T17:45:41.888Z,100136.77
2019-05-25T17:47:49.451Z,100142.81
2019-05-25T17:49:57.105Z,100139.36
2019-05-25T17:52:05.050Z,100142.95
2019-05-25T17:54:13.989Z,100141.16
2019-05-25T17:56:21.583Z,100144.25
2019-05-25T17:58:29.034Z,100153.17
2019-05-25T18:00:47.606Z,100155.26
2019-05-25T18:02:55.368Z,100155.05
2019-05-25T18:05:03.002Z,100158.44
2019-05-25T18:07:10.571Z,100154.84
2019-05-25T18:09:18.177Z,100162.96
2019-05-25T18:11:25.662Z,100162.25
2019-05-25T18:13:33.292Z,100165.61
2019-05-25T18:15:40.735Z,100167.28
2019-05-25T18:17:48.373Z,100166.23
2019-05-25T18:19:56.050Z,100175.87
2019-05-25T18:22:03.674Z,100176.62
2019-05-25T18:24:11.111Z,100175.69
2019-05-25T18:26:19.098Z,100185.22
2019-05-25T18:28:26.775Z,100187.69
2019-05-25T18:30:34.767Z,100182.83
2019-05-25T18:32:42.272Z,100188.81
2019-05-25T18:34:49.796Z,100191.78
2019-05-25T18:36:57.585Z,100191.63
2019-05-25T18:39:07.179Z,100196.47
2019-05-25T18:41:14.750Z,100196.20
2019-05-25T18:43:22.282Z,100192.13
2019-05-25T18:45:29.946Z,100199.77
2019-05-25T18:47:37.669Z,100197.73
2019-05-25T18:49:45.308Z,100198.95
2019-05-25T18:51:52.759Z,100199.22
2019-05-25T18:54:00.231Z,100202.73
2019-05-25T18:56:07.862Z,100192.19
2019-05-25T18:58:15.393Z,100200.84
2019-05-25T19:00:23.926Z,100204.38
2019-05-25T19:02:31.582Z,100204.73
2019-05-25T19:04:47.643Z,100203.89
2019-05-25T19:06:48.509Z,100214.55
2019-05-25T19:08:56.359Z,100213.55
2019-05-25T19:11:04.127Z,100210.82
2019-05-25T19:13:11.718Z,100215.80
2019-05-25T19:15:23.164Z,100214.97
2019-05-25T19:17:30.434Z,100217.89
2019-05-25T19:19:37.897Z,100216.83
2019-05-25T19:21:45.727Z,100233.52
2019-05-25T19:23:53.219Z,100229.52
2019-05-25T19:26:00.823Z,100230.76
2019-05-25T19:28:08.679Z,100231.83
2019-05-25T19:30:18.424Z,100233.53
2019-05-25T19:32:25.906Z,100229.05
2019-05-25T19:34:33.695Z,100235.84
2019-05-25T19:36:41.641Z,100239.00
2019-05-25T19:38:49.416Z,100239.06
2019-05-25T19:40:56.870Z,100246.57
2019-05-25T19:43:04.648Z,100245.84
2019-05-25T19:45:12.951Z,100249.57
2019-05-25T19:47:20.497Z,100255.88
2019-05-25T19:49:28.588Z,100248.23
2019-05-25T19:51:37.188Z,100248.48
2019-05-25T19:53:44.905Z,100253.54
2019-05-25T19:55:52.978Z,100245.30
2019-05-25T19:58:00.998Z,100249.40
2019-05-25T20:00:09.693Z,100255.56
2019-05-25T20:02:17.492Z,100253.36
2019-05-25T20:04:25.094Z,100255.70
2019-05-25T20:06:32.567Z,100251.48
2019-05-25T20:08:40.258Z,100248.81
2019-05-25T20:10:47.967Z,100258.02
2019-05-25T20:12:55.627Z,100256.58
2019-05-25T20:15:03.526Z,100254.94
2019-05-25T20:17:11.069Z,100255.42
2019-05-25T20:19:18.752Z,100254.78
2019-05-25T20:21:26.341Z,100258.28
2019-05-25T20:23:33.946Z,100268.77
2019-05-25T20:25:41.333Z,100264.57
2019-05-25T20:27:49.006Z,100275.00
2019-05-25T20:29:56.928Z,100262.97
2019-05-25T20:32:04.687Z,100265.53
2019-05-25T20:34:12.389Z,100274.12
2019-05-25T20:36:20.128Z,100272.64
2019-05-25T20:38:27.788Z,100275.58
2019-05-25T20:40:35.386Z,100282.13
2019-05-25T20:42:43.207Z,100278.48
2019-05-25T20:44:51.186Z,100286.77
2019-05-25T20:46:58.744Z,100285.77
2019-05-25T20:49:06.585Z,100287.72
2019-05-25T20:51:14.080Z,100291.57
2019-05-25T20:53:21.826Z,100289.60
2019-05-25T20:55:29.235Z,100293.58
2019-05-25T20:57:36.834Z,100291.52
2019-05-25T20:59:44.583Z,100293.97
2019-05-25T21:01:52.808Z,100294.16
2019-05-25T21:04:08.353Z,100294.00
2019-05-25T21:06:16.223Z,100295.73
2019-05-25T21:08:24.103Z,100290.28
2019-05-25T21:10:31.761Z,100292.05
2019-05-25T21:12:39.371Z,100303.15
2019-05-25T21:14:47.263Z,100302.40
2019-05-25T21:16:54.971Z,100306.71
2019-05-25T21:19:03.171Z,100307.08
2019-05-25T21:21:10.855Z,100306.05
2019-05-25T21:23:18.545Z,100301.27
2019-05-25T21:25:26.244Z,100309.45
2019-05-25T21:27:33.831Z,100310.34
2019-05-25T21:29:41.393Z,100310.74
2019-05-25T21:31:49.029Z,100318.42
2019-05-25T21:33:57.156Z,100313.61
2019-05-25T21:36:08.827Z,100319.27
2019-05-25T21:38:14.154Z,100321.64
2019-05-25T21:40:21.927Z,100320.05
2019-05-25T21:42:30.531Z,100321.29
2019-05-25T21:44:38.139Z,100316.08
2019-05-25T21:46:45.635Z,100322.75
2019-05-25T21:48:53.105Z,100319.80
2019-05-25T21:51:00.797Z,100317.18
2019-05-25T21:53:11.131Z,100317.06
2019-05-25T21:55:18.966Z,100314.95
2019-05-25T21:57:26.455Z,100313.72
2019-05-25T21:59:35.962Z,100324.91
2019-05-25T22:01:43.928Z,100322.33
2019-05-25T22:03:51.818Z,100321.60
2019-05-25T22:05:59.416Z,100323.34
2019-05-25T22:08:07.006Z,100326.00
2019-05-25T22:10:14.876Z,100327.08
2019-05-25T22:12:22.450Z,100320.92
2019-05-25T22:14:30.181Z,100326.59
2019-05-25T22:16:37.725Z,100323.96
2019-05-25T22:18:45.329Z,100331.03
2019-05-25T22:20:52.995Z,100322.53
2019-05-25T22:23:00.456Z,100321.47
2019-05-25T22:25:08.570Z,100326.70
2019-05-25T22:27:15.998Z,100324.73
2019-05-25T22:29:23.452Z,100329.26
2019-05-25T22:31:30.902Z,100326.90
2019-05-25T22:33:38.352Z,100328.67
2019-05-25T22:35:45.765Z,100328.59
2019-05-25T22:37:53.252Z,100332.25
2019-05-25T22:40:00.775Z,100326.95
2019-05-25T22:42:08.417Z,100334.30
2019-05-25T22:44:15.862Z,100333.06
2019-05-25T22:46:23.583Z,100338.55
2019-05-25T22:48:31.016Z,100330.25
2019-05-25T22:50:51.601Z,100328.17
2019-05-25T22:52:59.231Z,100336.19
2019-05-25T22:55:07.710Z,100334.38
2019-05-25T22:57:15.160Z,100327.86
2019-05-25T22:59:22.616Z,100330.22
2019-05-25T23:01:30.125Z,100324.84
2019-05-25T23:03:37.635Z,100326.34
2019-05-25T23:05:45.123Z,100326.53
2019-05-25T23:07:52.547Z,100330.66
2019-05-25T23:10:00.046Z,100332.37
2019-05-25T23:12:07.562Z,100338.78
2019-05-25T23:14:14.969Z,100331.62
2019-05-25T23:16:22.605Z,100333.38
2019-05-25T23:18:29.967Z,100334.81
2019-05-25T23:20:37.362Z,100337.41
2019-05-25T23:22:47.616Z,100332.59
2019-05-25T23:24:55.235Z,100338.37
2019-05-25T23:27:02.670Z,100337.81
2019-05-25T23:29:10.061Z,100338.48
2019-05-25T23:31:17.461Z,100341.38
2019-05-25T23:33:24.909Z,100343.45
2019-05-25T23:35:32.504Z,100344.20
2019-05-25T23:37:39.866Z,100341.16
2019-05-25T23:39:47.480Z,100344.07
2019-05-25T23:41:55.108Z,100346.23
2019-05-25T23:44:02.590Z,100348.70
2019-05-25T23:46:10.131Z,100348.65
2019-05-25T23:48:17.743Z,100345.45
2019-05-25T23:50:25.205Z,100340.20
2019-05-25T23:52:32.681Z,100336.17
2019-05-25T23:54:40.374Z,100332.70
2019-05-25T23:56:47.809Z,100335.32
2019-05-25T23:58:55.253Z,100336.64
